Krymsk — A8CE4 — position and weather

sailwx.info

Track history (hours):
 
Tides and Currents Weather Stations Pressure Air Temp Water Temp Dewpoint Dewpoint Depression Visibility Wind Speed Wind Dir Waves Ship Positions

Krymsk

Last reported at 2015-Feb-19 00:15 UTC. Time now 2015-Mar-04 02:54 UTC.
Position N 38°16' W 030°47'.
Warning: this ship's position is 13 days out of date.

Length 250 m; draft 14 m.

Type: Tanker. MMSI: 636011914.

Date/timePositionNaut miles runAvg speedWind from/ knotsBaromVisibWave heightAir tempDewpointWater temp
2015-Feb-19 00:15N 38°16' W 030°47'2212.0
2015-Feb-18 22:23N 38°29' W 030°24'1111.8
2015-Feb-18 21:30N 38°34' W 030°13'1112.2
2015-Feb-18 20:33N 38°41' W 030°01'1212.1
2015-Feb-18 19:33N 38°48' W 029°48'1211.8
2015-Feb-18 18:33N 38°55' W 029°36'1212.1
2015-Feb-18 17:33N 39°02' W 029°23'1212.0
2015-Feb-18 16:33N 39°08' W 029°10'1212.1
2015-Feb-18 15:33N 39°15' W 028°57'1212.2
2015-Feb-18 14:33N 39°22' W 028°44'1212.4
2015-Feb-18 13:33N 39°29' W 028°31'1212.4
2015-Feb-18 12:33N 39°36' W 028°17'1212.4
2015-Feb-18 11:33N 39°42' W 028°03'2712.6
2015-Feb-18 09:24N 39°55' W 027°33'1212.6
2015-Feb-18 08:29N 40°01' W 027°20'  
2015-Feb-14 00:24N 50°28' W 000°25'1713.0
2015-Feb-13 23:06N 50°31' E 000°01'1013.5
2015-Feb-13 22:22N 50°34' E 000°16'1113.6
2015-Feb-13 21:32N 50°37' E 000°33'1313.1
2015-Feb-13 20:33N 50°45' E 000°49'2411.7
2015-Feb-13 18:32N 50°60' E 001°19'1010.7
2015-Feb-13 17:34N 51°06' E 001°32'1111.0
2015-Feb-13 16:33N 51°13' E 001°45'1212.2
2015-Feb-13 15:33N 51°24' E 001°54'1313.2
2015-Feb-13 14:34N 51°34' E 002°08'42312.7
2015-Feb-12 05:13N 57°31' E 008°37'1013.0
2015-Feb-12 04:27N 57°37' E 008°53'1212.7
2015-Feb-12 03:33N 57°43' E 009°11'3212.9
2015-Feb-12 01:04N 57°50' E 010°10'712.8
2015-Feb-12 00:30N 57°50' E 010°23'1111.7
2015-Feb-11 23:33N 57°49' E 010°44'9 9.2
2015-Feb-11 22:33N 57°40' E 010°47'1212.4
2015-Feb-11 21:33N 57°27' E 010°46'2 1.7
2015-Feb-11 20:09N 57°25' E 010°46'0 0.1
2015-Feb-11 19:21N 57°25' E 010°46'0 0.1
2015-Feb-11 18:18N 57°25' E 010°46'0 0.0
2015-Feb-11 17:24N 57°25' E 010°46'0 0.0
2015-Feb-11 16:33N 57°25' E 010°46'0 0.0
2015-Feb-11 15:21N 57°25' E 010°46'0 0.0
2015-Feb-11 14:33N 57°25' E 010°46'0 0.1
2015-Feb-11 13:21N 57°25' E 010°46'0 0.1
2015-Feb-11 12:33N 57°25' E 010°46'0 0.0
2015-Feb-11 11:33N 57°25' E 010°46'0 0.0
2015-Feb-11 10:24N 57°25' E 010°46'0 0.0
2015-Feb-11 09:18N 57°25' E 010°46'0 0.0
2015-Feb-11 08:33N 57°25' E 010°46'0 0.0
2015-Feb-11 07:20N 57°25' E 010°46'0 0.1
2015-Feb-11 06:32N 57°25' E 010°46'0 0.0
2015-Feb-11 02:29N 57°25' E 010°46'0 0.1
2015-Feb-11 01:32N 57°25' E 010°46'0 0.0
2015-Feb-11 00:32N 57°25' E 010°46'0 0.1
2015-Feb-10 23:29N 57°25' E 010°46'0 0.0
2015-Feb-10 22:17N 57°25' E 010°46'0 0.0
2015-Feb-10 21:29N 57°25' E 010°46'0 0.0
2015-Feb-10 20:32N 57°25' E 010°46'0 0.1
2015-Feb-10 19:32N 57°25' E 010°46'0 0.0
2015-Feb-10 18:32N 57°25' E 010°46'0 0.1
2015-Feb-10 17:29N 57°25' E 010°46'0 0.2
2015-Feb-10 16:32N 57°25' E 010°46'0 0.2
2015-Feb-10 15:29N 57°25' E 010°46'0 0.2
2015-Feb-10 14:29N 57°25' E 010°46'1 0.6
2015-Feb-10 13:29N 57°26' E 010°47'4 3.9
2015-Feb-10 12:33N 57°29' E 010°46'0 0.2
2015-Feb-10 11:31N 57°29' E 010°46'0 0.1
2015-Feb-10 10:28N 57°29' E 010°46'0 0.0
2015-Feb-10 09:31N 57°29' E 010°46'0 0.1
2015-Feb-10 08:31N 57°29' E 010°46'0 0.1
2015-Feb-10 07:31N 57°29' E 010°46'0 0.1
2015-Feb-10 06:28N 57°29' E 010°46'0 0.1
2015-Feb-10 05:16N 57°29' E 010°46'0 0.0
2015-Feb-10 04:31N 57°29' E 010°46'0 0.0
2015-Feb-10 03:28N 57°29' E 010°46'0 0.1
2015-Feb-10 02:31N 57°29' E 010°46'0 0.0
2015-Feb-10 01:31N 57°29' E 010°46'0 0.0
2015-Feb-10 00:31N 57°29' E 010°46'0 0.0
2015-Feb-09 23:31N 57°29' E 010°46'0 0.0
2015-Feb-09 22:31N 57°29' E 010°46'0 0.0
2015-Feb-09 21:28N 57°29' E 010°46'0 0.0
2015-Feb-09 20:31N 57°29' E 010°46'0 0.0
2015-Feb-09 19:31N 57°29' E 010°46'0 0.0
2015-Feb-09 18:22N 57°29' E 010°46'0 0.0
2015-Feb-09 17:31N 57°29' E 010°46'0 0.0
2015-Feb-09 16:31N 57°29' E 010°46'0 0.0
2015-Feb-09 15:31N 57°29' E 010°46'0 0.3
2015-Feb-09 14:33N 57°29' E 010°46'2 1.8
2015-Feb-09 13:30N 57°29' E 010°43'0 0.1
2015-Feb-09 12:30N 57°29' E 010°43'0 0.0
2015-Feb-09 11:33N 57°29' E 010°43'0 0.1
2015-Feb-09 10:30N 57°29' E 010°43'2 2.2
2015-Feb-09 09:33N 57°31' E 010°44'10 9.6
2015-Feb-09 08:33N 57°41' E 010°44'4 3.4
2015-Feb-09 07:32N 57°41' E 010°38'0 0.0
2015-Feb-09 06:32N 57°41' E 010°38'0 0.0
2015-Feb-09 05:32N 57°41' E 010°38'0 0.0
2015-Feb-09 04:32N 57°41' E 010°38'0 0.0
2015-Feb-09 03:32N 57°41' E 010°38'0 0.0
2015-Feb-09 02:32N 57°41' E 010°38'0 0.0
2015-Feb-09 01:32N 57°41' E 010°38'0 0.0
2015-Feb-09 00:28N 57°41' E 010°38'  
Track history (hours):
 
Tides and Currents Weather Stations Pressure Air Temp Water Temp Dewpoint Dewpoint Depression Visibility Wind Speed Wind Dir Waves Ship Positions

Krymsk

Last reported at 2015-Feb-19 00:15 UTC. Time now 2015-Mar-04 02:54 UTC.
Position N 38°16' W 030°47'.
Warning: this ship's position is 13 days out of date.

Length 250 m; draft 14 m.

Type: Tanker. MMSI: 636011914.

Date/timePositionNaut miles runAvg speedWind from/ knotsBaromVisibWave heightAir tempDewpointWater temp
2015-Feb-19 00:15N 38°16' W 030°47'2212.0
2015-Feb-18 22:23N 38°29' W 030°24'1111.8
2015-Feb-18 21:30N 38°34' W 030°13'1112.2
2015-Feb-18 20:33N 38°41' W 030°01'1212.1
2015-Feb-18 19:33N 38°48' W 029°48'1211.8
2015-Feb-18 18:33N 38°55' W 029°36'1212.1
2015-Feb-18 17:33N 39°02' W 029°23'1212.0
2015-Feb-18 16:33N 39°08' W 029°10'1212.1
2015-Feb-18 15:33N 39°15' W 028°57'1212.2
2015-Feb-18 14:33N 39°22' W 028°44'1212.4
2015-Feb-18 13:33N 39°29' W 028°31'1212.4
2015-Feb-18 12:33N 39°36' W 028°17'1212.4
2015-Feb-18 11:33N 39°42' W 028°03'2712.6
2015-Feb-18 09:24N 39°55' W 027°33'1212.6
2015-Feb-18 08:29N 40°01' W 027°20'  
2015-Feb-14 00:24N 50°28' W 000°25'1713.0
2015-Feb-13 23:06N 50°31' E 000°01'1013.5
2015-Feb-13 22:22N 50°34' E 000°16'1113.6
2015-Feb-13 21:32N 50°37' E 000°33'1313.1
2015-Feb-13 20:33N 50°45' E 000°49'2411.7
2015-Feb-13 18:32N 50°60' E 001°19'1010.7
2015-Feb-13 17:34N 51°06' E 001°32'1111.0
2015-Feb-13 16:33N 51°13' E 001°45'1212.2
2015-Feb-13 15:33N 51°24' E 001°54'1313.2
2015-Feb-13 14:34N 51°34' E 002°08'42312.7
2015-Feb-12 05:13N 57°31' E 008°37'1013.0
2015-Feb-12 04:27N 57°37' E 008°53'1212.7
2015-Feb-12 03:33N 57°43' E 009°11'3212.9
2015-Feb-12 01:04N 57°50' E 010°10'712.8
2015-Feb-12 00:30N 57°50' E 010°23'1111.7
2015-Feb-11 23:33N 57°49' E 010°44'9 9.2
2015-Feb-11 22:33N 57°40' E 010°47'1212.4
2015-Feb-11 21:33N 57°27' E 010°46'2 1.7
2015-Feb-11 20:09N 57°25' E 010°46'0 0.1
2015-Feb-11 19:21N 57°25' E 010°46'0 0.1
2015-Feb-11 18:18N 57°25' E 010°46'0 0.0
2015-Feb-11 17:24N 57°25' E 010°46'0 0.0
2015-Feb-11 16:33N 57°25' E 010°46'0 0.0
2015-Feb-11 15:21N 57°25' E 010°46'0 0.0
2015-Feb-11 14:33N 57°25' E 010°46'0 0.1
2015-Feb-11 13:21N 57°25' E 010°46'0 0.1
2015-Feb-11 12:33N 57°25' E 010°46'0 0.0
2015-Feb-11 11:33N 57°25' E 010°46'0 0.0
2015-Feb-11 10:24N 57°25' E 010°46'0 0.0
2015-Feb-11 09:18N 57°25' E 010°46'0 0.0
2015-Feb-11 08:33N 57°25' E 010°46'0 0.0
2015-Feb-11 07:20N 57°25' E 010°46'0 0.1
2015-Feb-11 06:32N 57°25' E 010°46'0 0.0
2015-Feb-11 02:29N 57°25' E 010°46'0 0.1
2015-Feb-11 01:32N 57°25' E 010°46'0 0.0
2015-Feb-11 00:32N 57°25' E 010°46'0 0.1
2015-Feb-10 23:29N 57°25' E 010°46'0 0.0
2015-Feb-10 22:17N 57°25' E 010°46'0 0.0
2015-Feb-10 21:29N 57°25' E 010°46'0 0.0
2015-Feb-10 20:32N 57°25' E 010°46'0 0.1
2015-Feb-10 19:32N 57°25' E 010°46'0 0.0
2015-Feb-10 18:32N 57°25' E 010°46'0 0.1
2015-Feb-10 17:29N 57°25' E 010°46'0 0.2
2015-Feb-10 16:32N 57°25' E 010°46'0 0.2
2015-Feb-10 15:29N 57°25' E 010°46'0 0.2
2015-Feb-10 14:29N 57°25' E 010°46'1 0.6
2015-Feb-10 13:29N 57°26' E 010°47'4 3.9
2015-Feb-10 12:33N 57°29' E 010°46'0 0.2
2015-Feb-10 11:31N 57°29' E 010°46'0 0.1
2015-Feb-10 10:28N 57°29' E 010°46'0 0.0
2015-Feb-10 09:31N 57°29' E 010°46'0 0.1
2015-Feb-10 08:31N 57°29' E 010°46'0 0.1
2015-Feb-10 07:31N 57°29' E 010°46'0 0.1
2015-Feb-10 06:28N 57°29' E 010°46'0 0.1
2015-Feb-10 05:16N 57°29' E 010°46'0 0.0
2015-Feb-10 04:31N 57°29' E 010°46'0 0.0
2015-Feb-10 03:28N 57°29' E 010°46'0 0.1
2015-Feb-10 02:31N 57°29' E 010°46'0 0.0
2015-Feb-10 01:31N 57°29' E 010°46'0 0.0
2015-Feb-10 00:31N 57°29' E 010°46'0 0.0
2015-Feb-09 23:31N 57°29' E 010°46'0 0.0
2015-Feb-09 22:31N 57°29' E 010°46'0 0.0
2015-Feb-09 21:28N 57°29' E 010°46'0 0.0
2015-Feb-09 20:31N 57°29' E 010°46'0 0.0
2015-Feb-09 19:31N 57°29' E 010°46'0 0.0
2015-Feb-09 18:22N 57°29' E 010°46'0 0.0
2015-Feb-09 17:31N 57°29' E 010°46'0 0.0
2015-Feb-09 16:31N 57°29' E 010°46'0 0.0
2015-Feb-09 15:31N 57°29' E 010°46'0 0.3
2015-Feb-09 14:33N 57°29' E 010°46'2 1.8
2015-Feb-09 13:30N 57°29' E 010°43'0 0.1
2015-Feb-09 12:30N 57°29' E 010°43'0 0.0
2015-Feb-09 11:33N 57°29' E 010°43'0 0.1
2015-Feb-09 10:30N 57°29' E 010°43'2 2.2
2015-Feb-09 09:33N 57°31' E 010°44'10 9.6
2015-Feb-09 08:33N 57°41' E 010°44'4 3.4
2015-Feb-09 07:32N 57°41' E 010°38'0 0.0
2015-Feb-09 06:32N 57°41' E 010°38'0 0.0
2015-Feb-09 05:32N 57°41' E 010°38'0 0.0
2015-Feb-09 04:32N 57°41' E 010°38'0 0.0
2015-Feb-09 03:32N 57°41' E 010°38'0 0.0
2015-Feb-09 02:32N 57°41' E 010°38'0 0.0
2015-Feb-09 01:32N 57°41' E 010°38'0 0.0
2015-Feb-09 00:28N 57°41' E 010°38'  

Dump ship's entire track history